Time;durP1;ratioP1;P1;durP2;ratioP2;P2;SDS_P1;SDS_P2;PMS_P1;PMS_P2;Temp;Humidity;BMP_temperature;BMP_pressure;BME280_temperature;BME280_humidity;BME280_pressure;Samples;Min_cycle;Max_cycle;Signal;HPM_P1;HPM_P2
2021/12/02 00:00:55;;;;;;;6.47;1.20;;;6.70;99.90;;;7.12;66.63;98229.81;5089118;28;20219;-76
2021/12/02 00:03:24;;;;;;;3.33;0.80;;;6.70;99.90;;;7.13;66.93;98226.28;5086575;28;20194;-74
2021/12/02 00:05:51;;;;;;;7.40;1.13;;;6.60;99.90;;;7.15;66.68;98239.22;5081400;28;20210;-74
2021/12/02 00:08:18;;;;;;;4.30;1.10;;;6.60;99.90;;;7.12;66.93;98224.63;5080296;28;20211;-75
2021/12/02 00:10:45;;;;;;;4.20;0.85;;;6.60;99.90;;;7.10;66.90;98234.28;5075567;28;20227;-75
2021/12/02 00:13:12;;;;;;;5.55;1.02;;;6.60;99.90;;;7.08;67.18;98237.94;5081464;28;20218;-74
2021/12/02 00:15:46;;;;;;;4.10;0.68;;;6.60;99.90;;;7.06;66.82;98232.81;5086886;28;20187;-74
2021/12/02 00:21:02;;;;;;;4.32;0.80;;;6.60;99.90;;;7.03;66.91;98240.78;5087099;28;20184;-74
2021/12/02 00:21:22;;;;;;;3.50;0.70;;;6.60;99.90;;;7.00;67.37;98251.41;5071529;28;20242;-75
2021/12/02 00:23:56;;;;;;;7.45;1.10;;;6.50;99.90;;;6.99;67.17;98257.53;5070402;28;20225;-73
2021/12/02 00:26:23;;;;;;;4.35;1.02;;;6.50;99.90;;;6.97;67.22;98255.94;5081584;28;20569;-73
2021/12/02 00:28:54;;;;;;;2.53;0.70;;;6.50;99.90;;;6.98;67.35;98255.03;5085113;28;20208;-74
2021/12/02 00:31:24;;;;;;;4.20;0.90;;;6.50;99.90;;;6.96;66.94;98255.13;5077955;28;20219;-74
2021/12/02 00:33:54;;;;;;;3.53;0.40;;;6.50;99.90;;;6.94;67.17;98277.78;5077538;28;20735;-74
2021/12/02 00:36:25;;;;;;;5.50;0.70;;;6.50;99.90;;;6.93;66.98;98291.69;5087942;28;20203;-74
2021/12/02 00:38:54;;;;;;;4.15;0.80;;;6.50;99.90;;;6.91;67.43;98298.78;5076815;28;20195;-74
2021/12/02 00:41:24;;;;;;;3.80;0.75;;;6.40;99.90;;;6.83;67.43;98311.38;5086428;28;20267;-75
2021/12/02 00:43:54;;;;;;;6.15;0.90;;;6.40;99.90;;;6.72;69.23;98336.38;5084804;28;20248;-74
2021/12/02 00:46:24;;;;;;;3.38;0.80;;;6.30;99.90;;;6.46;71.38;98331.91;5077717;28;20803;-74
2021/12/02 00:48:53;;;;;;;3.92;0.90;;;6.10;99.90;;;6.06;74.37;98349.00;5080403;28;20195;-74
2021/12/02 00:51:22;;;;;;;4.53;0.80;;;5.80;99.90;;;5.68;77.41;98345.97;5090392;28;20234;-77
2021/12/02 00:53:53;;;;;;;4.43;1.30;;;5.50;99.90;;;5.39;79.56;98359.75;5075708;28;20207;-73
2021/12/02 00:56:25;;;;;;;2.20;0.73;;;5.20;99.90;;;5.18;81.41;98367.81;5085413;28;20194;-74
2021/12/02 00:58:53;;;;;;;4.22;1.15;;;4.90;99.90;;;5.03;82.68;98385.88;5075018;28;20203;-75
2021/12/02 01:01:24;;;;;;;4.85;0.80;;;4.80;99.90;;;4.93;84.09;98374.34;5078503;28;20656;-75
2021/12/02 01:03:57;;;;;;;3.65;0.93;;;4.70;99.90;;;4.81;84.78;98394.84;5071538;28;20196;-75
2021/12/02 01:06:26;;;;;;;6.05;0.80;;;4.60;99.90;;;4.74;85.79;98399.53;5080874;28;20214;-74
2021/12/02 01:08:54;;;;;;;6.13;1.00;;;4.40;99.90;;;4.74;86.47;98390.91;5085639;28;20191;-75
2021/12/02 01:11:21;;;;;;;3.33;0.60;;;4.40;99.90;;;4.77;86.85;98389.00;5083204;28;20215;-74
2021/12/02 01:13:49;;;;;;;1.73;0.43;;;4.40;99.90;;;4.75;86.85;98377.06;5086857;28;20230;-75
2021/12/02 01:16:18;;;;;;;5.78;0.68;;;4.40;99.90;;;4.66;86.73;98391.31;5085955;28;20195;-75
2021/12/02 01:18:45;;;;;;;2.15;0.55;;;4.30;99.90;;;4.60;86.63;98399.41;5085438;28;20240;-75
2021/12/02 01:21:17;;;;;;;0.98;0.30;;;4.20;99.90;;;4.54;86.04;98391.94;5093339;28;20268;-75
2021/12/02 01:23:50;;;;;;;2.53;0.30;;;4.20;99.90;;;4.56;85.87;98404.81;5101860;28;20192;-74
2021/12/02 01:26:19;;;;;;;1.02;0.20;;;4.10;99.90;;;4.60;85.43;98402.00;5076551;28;20215;-75
2021/12/02 01:28:50;;;;;;;1.13;0.22;;;4.10;99.90;;;4.59;85.32;98431.38;5077797;28;20181;-75
2021/12/02 01:31:18;;;;;;;0.52;0.17;;;4.10;99.90;;;4.60;84.93;98416.69;5089876;28;20212;-75
2021/12/02 01:33:47;;;;;;;2.28;0.30;;;4.10;99.90;;;4.61;84.46;98419.19;5083170;28;20198;-76
2021/12/02 01:36:15;;;;;;;0.30;0.20;;;4.00;99.90;;;4.61;84.14;98414.03;5084026;28;20196;-75
2021/12/02 01:38:42;;;;;;;0.43;0.05;;;4.00;99.90;;;4.63;83.82;98417.38;5083910;28;20195;-75
2021/12/02 01:41:10;;;;;;;1.85;0.40;;;4.00;99.90;;;4.64;83.59;98419.03;5085971;28;20252;-75
2021/12/02 01:43:50;;;;;;;1.25;0.35;;;4.00;99.90;;;4.63;83.21;98414.78;5089682;28;20200;-75
2021/12/02 01:46:20;;;;;;;3.47;0.38;;;4.00;99.90;;;4.65;82.17;98436.25;5094333;28;20195;-75
2021/12/02 01:48:51;;;;;;;3.60;0.50;;;4.00;99.90;;;4.65;81.49;98423.31;5096003;28;20179;-76
2021/12/02 01:51:21;;;;;;;2.47;0.45;;;4.00;99.90;;;4.65;80.37;98436.25;5094922;28;20216;-75
2021/12/02 01:53:54;;;;;;;1.88;0.20;;;4.00;99.90;;;4.68;80.01;98425.75;5089254;28;20192;-75
2021/12/02 01:56:24;;;;;;;3.28;0.50;;;4.00;99.90;;;4.68;79.14;98430.94;5094562;28;20194;-75
2021/12/02 01:58:53;;;;;;;1.08;0.17;;;4.00;99.90;;;4.67;78.73;98428.41;5094974;28;20594;-73
2021/12/02 02:01:24;;;;;;;2.65;0.30;;;4.00;99.90;;;4.70;77.88;98431.69;5090595;28;20672;-76
2021/12/02 02:03:55;;;;;;;2.00;0.30;;;4.10;99.90;;;4.74;77.57;98440.97;5091244;28;20631;-74
2021/12/02 02:06:32;;;;;;;4.47;0.35;;;4.10;99.90;;;4.76;77.29;98444.31;5086168;28;20194;-75
2021/12/02 02:09:00;;;;;;;1.67;0.35;;;4.10;99.90;;;4.79;77.23;98449.31;5094266;28;20698;-76
2021/12/02 02:11:31;;;;;;;3.08;0.22;;;4.20;99.90;;;4.83;77.04;98430.13;5094858;28;20218;-76
2021/12/02 02:14:00;;;;;;;0.35;0.13;;;4.20;99.90;;;4.85;76.48;98428.31;5076338;28;20189;-74
2021/12/02 02:16:29;;;;;;;1.55;0.30;;;4.20;99.90;;;4.84;76.57;98452.53;5077805;28;20187;-75
2021/12/02 02:18:56;;;;;;;1.27;0.20;;;4.30;99.90;;;4.87;76.38;98444.59;5086255;28;20200;-74
2021/12/02 02:21:24;;;;;;;1.50;0.35;;;4.30;99.90;;;4.88;76.15;98448.88;5092801;28;20432;-76
2021/12/02 02:23:56;;;;;;;3.58;0.70;;;4.30;99.90;;;4.89;75.90;98452.28;5084490;28;20214;-75
2021/12/02 02:26:26;;;;;;;2.83;0.40;;;4.30;99.90;;;4.88;75.61;98469.59;5094644;28;20223;-75
2021/12/02 02:28:55;;;;;;;0.98;0.35;;;4.30;99.90;;;4.87;75.74;98456.72;5078450;28;20204;-75
2021/12/02 02:31:23;;;;;;;1.90;0.40;;;4.30;99.90;;;4.87;75.99;98470.50;5087343;28;20295;-76
2021/12/02 02:33:52;;;;;;;2.97;0.70;;;4.30;99.90;;;4.89;76.62;98468.66;5089428;28;20593;-75
2021/12/02 02:36:24;;;;;;;3.10;0.40;;;4.30;99.90;;;4.87;76.69;98488.63;5078561;28;20188;-75
2021/12/02 02:38:56;;;;;;;1.88;0.30;;;4.30;99.90;;;4.85;77.52;98485.31;5075874;28;20199;-75
2021/12/02 02:41:26;;;;;;;1.85;0.30;;;4.30;99.90;;;4.84;77.89;98486.19;5073186;28;20235;-75
2021/12/02 02:43:56;;;;;;;3.95;0.55;;;4.30;99.90;;;4.86;78.34;98483.53;5083304;28;20237;-73
2021/12/02 02:46:28;;;;;;;7.90;1.00;;;4.30;99.90;;;4.85;78.25;98487.88;5078148;28;20241;-73
2021/12/02 02:48:58;;;;;;;2.45;0.50;;;4.30;99.90;;;4.85;78.44;98485.31;5080877;28;20195;-74
2021/12/02 02:51:26;;;;;;;3.75;0.60;;;4.30;99.90;;;4.84;78.18;98496.56;5087514;28;20586;-75
2021/12/02 02:53:57;;;;;;;2.92;0.50;;;4.30;99.90;;;4.85;78.69;98495.66;5081097;28;20196;-76
2021/12/02 02:56:30;;;;;;;3.85;0.70;;;4.30;99.90;;;4.85;77.96;98489.63;5093394;28;20199;-76
2021/12/02 02:59:09;;;;;;;2.00;0.50;;;4.30;99.90;;;4.86;77.96;98507.69;5087487;28;20630;-75
2021/12/02 03:01:43;;;;;;;2.70;0.57;;;4.30;99.90;;;4.87;77.82;98499.00;5086018;28;20307;-75
2021/12/02 03:04:25;;;;;;;3.90;0.70;;;4.40;99.90;;;4.90;77.41;98485.06;5080617;28;20283;-76
2021/12/02 03:07:00;;;;;;;3.17;0.60;;;4.40;99.90;;;4.92;77.43;98480.63;5077680;28;20191;-75
2021/12/02 03:12:13;;;;;;;2.95;0.63;;;4.40;99.90;;;4.97;76.70;98491.59;5082047;28;20199;-75
2021/12/02 03:14:54;;;;;;;2.28;0.60;;;4.40;99.90;;;4.99;76.53;98502.69;5086744;28;20191;-76
2021/12/02 03:17:20;;;;;;;5.60;0.50;;;4.40;99.90;;;5.00;76.21;98509.56;5078753;28;20574;-75
2021/12/02 03:19:48;;;;;;;5.72;0.90;;;4.40;99.90;;;4.98;76.64;98520.03;5071690;28;20219;-76
2021/12/02 03:22:18;;;;;;;1.77;0.45;;;4.40;99.90;;;4.95;77.00;98512.41;5077405;28;20310;-75
2021/12/02 03:24:45;;;;;;;4.95;0.70;;;4.40;99.90;;;4.91;77.49;98516.06;5091570;28;20196;-76
2021/12/02 03:27:13;;;;;;;1.92;0.60;;;4.40;99.90;;;4.88;77.47;98523.16;5079549;28;20196;-75
2021/12/02 03:29:41;;;;;;;2.33;0.63;;;4.40;99.90;;;4.87;77.67;98526.66;5086677;28;20188;-75
2021/12/02 03:32:09;;;;;;;4.47;0.60;;;4.40;99.90;;;4.85;78.20;98526.75;5106873;28;20231;-75
2021/12/02 03:34:39;;;;;;;3.05;0.65;;;4.30;99.90;;;4.84;78.25;98527.66;5082130;28;20614;-75
2021/12/02 03:37:06;;;;;;;4.20;0.68;;;4.30;99.90;;;4.84;78.29;98535.41;5090362;28;21748;-75
2021/12/02 03:39:35;;;;;;;1.38;0.50;;;4.30;99.90;;;4.82;78.42;98542.41;5080881;28;20652;-75
2021/12/02 03:42:03;;;;;;;2.03;0.60;;;4.30;99.90;;;4.80;78.36;98536.50;5090725;28;20226;-76
2021/12/02 03:44:30;;;;;;;3.38;0.60;;;4.30;99.90;;;4.81;78.24;98534.72;5076903;28;20208;-76
2021/12/02 03:50:38;;;;;;;2.38;0.57;;;4.30;99.90;;;4.83;78.28;98554.47;5083696;28;20694;-76
2021/12/02 03:53:04;;;;;;;1.70;0.50;;;4.30;99.90;;;4.84;78.16;98555.28;5076458;28;20776;-75
2021/12/02 03:55:33;;;;;;;1.13;0.47;;;4.30;99.90;;;4.82;78.13;98550.19;5071186;28;20196;-75
2021/12/02 03:57:59;;;;;;;2.55;0.40;;;4.30;99.90;;;4.80;77.98;98554.63;5087853;28;20191;-76
2021/12/02 04:00:26;;;;;;;3.53;1.67;;;4.30;99.90;;;4.80;78.46;98557.22;5102857;28;20727;-74
2021/12/02 04:02:53;;;;;;;4.47;0.60;;;4.30;99.90;;;4.83;78.39;98569.16;5090906;28;20195;-75
2021/12/02 04:05:19;;;;;;;5.60;0.65;;;4.30;99.90;;;4.86;78.29;98577.63;5080660;28;20198;-75
2021/12/02 04:07:46;;;;;;;2.33;0.32;;;4.40;99.90;;;4.85;78.42;98568.19;5091243;28;20199;-76
2021/12/02 04:10:13;;;;;;;3.35;0.57;;;4.40;99.90;;;4.82;78.37;98573.50;5085255;28;20211;-75
2021/12/02 04:12:50;;;;;;;2.15;0.73;;;4.30;99.90;;;4.82;78.23;98583.03;5077869;28;20196;-74
2021/12/02 04:15:22;;;;;;;4.45;0.70;;;4.30;99.90;;;4.82;78.29;98573.50;5083403;28;20190;-76
2021/12/02 04:17:50;;;;;;;5.22;0.65;;;4.30;99.90;;;4.78;78.20;98587.53;5090251;28;20205;-75
2021/12/02 04:20:20;;;;;;;2.50;0.70;;;4.20;99.90;;;4.74;77.90;98601.53;5092596;28;20203;-75
2021/12/02 04:22:47;;;;;;;1.90;0.40;;;4.20;99.90;;;4.74;78.37;98611.06;5091603;28;20286;-75
2021/12/02 04:25:16;;;;;;;1.55;0.40;;;4.20;99.90;;;4.73;77.93;98607.66;5103778;28;20195;-75
2021/12/02 04:27:46;;;;;;;2.60;0.75;;;4.20;99.90;;;4.72;77.97;98618.91;5079751;28;20191;-76
2021/12/02 04:30:17;;;;;;;2.00;0.55;;;4.10;99.90;;;4.69;77.86;98616.47;5081845;28;20254;-75
2021/12/02 04:32:44;;;;;;;2.47;0.50;;;4.10;99.90;;;4.68;77.92;98613.94;5091745;28;20191;-75
2021/12/02 04:35:13;;;;;;;1.63;0.43;;;4.10;99.90;;;4.63;77.98;98610.75;5090690;28;20195;-74
2021/12/02 04:37:40;;;;;;;3.17;0.70;;;4.10;99.90;;;4.61;78.02;98636.72;5082264;28;20192;-75
2021/12/02 04:40:10;;;;;;;3.28;0.60;;;4.10;99.90;;;4.58;77.82;98613.56;5081072;28;20219;-74
2021/12/02 04:42:37;;;;;;;3.40;0.52;;;4.10;99.90;;;4.57;77.98;98645.53;5085606;28;20624;-76
2021/12/02 04:45:06;;;;;;;3.30;0.63;;;4.00;99.90;;;4.56;77.91;98643.84;5090964;28;20198;-75
2021/12/02 04:47:33;;;;;;;3.88;0.63;;;4.00;99.90;;;4.56;77.96;98656.81;5092966;28;20206;-75
2021/12/02 04:50:01;;;;;;;4.70;0.52;;;4.00;99.90;;;4.54;77.92;98656.03;5080194;28;20215;-75
2021/12/02 04:52:27;;;;;;;3.85;0.70;;;4.00;99.90;;;4.53;77.76;98674.22;5080734;28;20188;-75
2021/12/02 04:54:54;;;;;;;6.65;0.70;;;4.00;99.90;;;4.52;77.95;98668.22;5088320;28;20201;-74
2021/12/02 04:57:21;;;;;;;3.60;0.63;;;4.00;99.90;;;4.53;77.75;98663.88;5084741;28;20198;-74
2021/12/02 04:59:48;;;;;;;0.52;0.30;;;3.90;99.90;;;4.51;77.90;98665.69;5091592;28;20207;-75
2021/12/02 05:02:16;;;;;;;1.15;0.43;;;3.90;99.90;;;4.51;77.96;98687.25;5084240;28;20214;-75
2021/12/02 05:04:43;;;;;;;3.05;0.40;;;3.90;99.90;;;4.51;77.55;98671.72;5083312;28;20191;-75
2021/12/02 05:07:10;;;;;;;2.33;0.52;;;3.90;99.90;;;4.50;77.31;98675.22;5074973;28;20664;-75
2021/12/02 05:09:36;;;;;;;5.30;0.75;;;3.90;99.90;;;4.47;77.07;98680.53;5089239;28;20191;-75
2021/12/02 05:12:04;;;;;;;7.07;0.60;;;3.80;99.90;;;4.47;76.60;98688.28;5085701;28;20196;-75
2021/12/02 05:14:31;;;;;;;3.35;0.82;;;3.90;99.90;;;4.46;76.37;98688.38;5080112;28;20188;-74
2021/12/02 05:16:58;;;;;;;1.73;0.70;;;3.80;99.90;;;4.44;76.52;98693.63;5075790;28;20568;-75
2021/12/02 05:19:26;;;;;;;4.38;0.70;;;3.80;99.90;;;4.44;76.26;98688.44;5085713;28;20187;-75
2021/12/02 05:21:53;;;;;;;1.20;0.45;;;3.80;99.90;;;4.43;76.60;98693.69;5085586;28;20240;-75
2021/12/02 05:24:20;;;;;;;4.38;0.80;;;3.80;99.90;;;4.42;76.40;98707.56;5079801;28;20190;-75
2021/12/02 05:26:46;;;;;;;4.87;0.80;;;3.80;99.90;;;4.41;76.77;98700.69;5090349;28;20266;-74
2021/12/02 05:29:13;;;;;;;5.38;0.98;;;3.80;99.90;;;4.38;76.69;98706.84;5093401;28;20516;-75
2021/12/02 05:31:40;;;;;;;0.90;0.45;;;3.70;99.90;;;4.34;76.63;98707.03;5094033;28;20211;-75
2021/12/02 05:34:07;;;;;;;3.67;0.70;;;3.70;99.90;;;4.33;76.39;98719.16;5077384;28;20248;-76
2021/12/02 05:36:35;;;;;;;2.20;0.50;;;3.70;99.90;;;4.33;76.23;98721.75;5100207;28;20183;-75
2021/12/02 05:39:02;;;;;;;2.65;0.70;;;3.70;99.90;;;4.37;76.40;98738.00;5090304;28;20191;-75
2021/12/02 05:41:31;;;;;;;1.45;0.60;;;3.70;99.90;;;4.37;76.15;98723.28;5087098;28;20215;-75
2021/12/02 05:43:59;;;;;;;2.22;0.60;;;3.70;99.90;;;4.36;75.86;98734.56;5080742;28;20206;-75
2021/12/02 05:46:26;;;;;;;2.42;0.55;;;3.70;99.90;;;4.33;75.60;98734.69;5081703;28;20222;-76
2021/12/02 05:48:53;;;;;;;7.00;0.80;;;3.60;99.90;;;4.33;75.33;98734.69;5078667;28;20192;-76
2021/12/02 05:51:22;;;;;;;0.68;0.50;;;3.70;99.90;;;4.33;75.56;98744.19;5100621;28;20215;-75
2021/12/02 05:53:50;;;;;;;1.35;0.55;;;3.60;99.90;;;4.30;75.19;98747.78;5088344;28;20195;-74
2021/12/02 05:56:17;;;;;;;4.25;0.60;;;3.70;99.90;;;4.30;75.27;98752.94;5087905;28;20566;-75
2021/12/02 05:58:44;;;;;;;1.30;0.50;;;3.60;99.90;;;4.31;75.22;98752.03;5086689;28;20192;-75
2021/12/02 06:01:11;;;;;;;2.63;0.50;;;3.70;99.90;;;4.36;75.12;98751.81;5084271;28;20738;-75
2021/12/02 06:03:40;;;;;;;3.53;0.82;;;3.70;99.90;;;4.34;74.93;98748.44;5088965;28;20195;-74
2021/12/02 06:06:07;;;;;;;3.08;0.60;;;3.70;99.90;;;4.33;75.00;98762.31;5081871;28;21166;-75
2021/12/02 06:08:36;;;;;;;2.45;0.43;;;3.70;99.90;;;4.31;74.83;98759.81;5097730;28;20195;-75
2021/12/02 06:11:08;;;;;;;0.60;0.47;;;3.60;99.90;;;4.30;74.62;98759.88;5094697;28;20208;-72
2021/12/02 06:13:35;;;;;;;1.73;0.45;;;3.60;99.90;;;4.28;74.43;98769.44;5088283;28;20192;-73
2021/12/02 06:16:02;;;;;;;5.57;0.80;;;3.60;99.90;;;4.26;74.50;98766.06;5096526;28;20324;-74
2021/12/02 06:18:29;;;;;;;3.53;0.63;;;3.60;99.90;;;4.26;74.22;98779.88;5082621;28;20195;-74
2021/12/02 06:20:56;;;;;;;2.47;0.93;;;3.70;99.90;;;4.23;74.16;98779.16;5078368;28;20240;-75
2021/12/02 06:23:23;;;;;;;0.95;0.50;;;3.60;99.90;;;4.23;74.23;98800.72;5083791;28;20699;-73
2021/12/02 06:25:51;;;;;;;4.40;0.80;;;3.60;99.90;;;4.25;74.29;98796.31;5079824;28;20215;-75
2021/12/02 06:28:20;;;;;;;4.05;0.85;;;3.60;99.90;;;4.29;74.06;98805.59;5087078;28;20192;-75
2021/12/02 06:30:48;;;;;;;3.17;0.55;;;3.60;99.90;;;4.28;74.28;98819.47;5094883;28;20301;-74
2021/12/02 06:33:15;;;;;;;4.28;0.75;;;3.60;99.90;;;4.23;74.34;98818.81;5094635;28;20191;-74
2021/12/02 06:35:43;;;;;;;4.90;0.90;;;3.60;99.90;;;4.21;74.40;98820.63;5095604;28;20274;-75
2021/12/02 06:38:10;;;;;;;4.47;0.70;;;3.60;99.90;;;4.19;74.58;98827.63;5085800;28;20203;-75
2021/12/02 06:40:39;;;;;;;0.52;0.35;;;3.60;99.90;;;4.22;74.63;98831.84;5082004;28;20222;-74
2021/12/02 06:43:06;;;;;;;2.40;0.70;;;3.60;99.90;;;4.25;74.56;98829.09;5091502;28;20211;-75
2021/12/02 06:45:34;;;;;;;1.50;0.47;;;3.50;99.90;;;4.22;74.70;98840.41;5089346;28;20210;-75
2021/12/02 06:48:01;;;;;;;3.53;0.90;;;3.60;99.90;;;4.21;74.32;98846.50;5086929;28;20203;-75
2021/12/02 06:50:30;;;;;;;1.60;0.40;;;3.50;99.90;;;4.17;74.77;98844.94;5074875;28;20231;-75
2021/12/02 06:52:57;;;;;;;1.95;0.50;;;3.50;99.90;;;4.14;74.70;98841.66;5085170;28;20211;-74
2021/12/02 06:55:24;;;;;;;2.83;0.73;;;3.50;99.90;;;4.09;74.94;98839.25;5084941;28;20682;-75
2021/12/02 06:57:51;;;;;;;4.03;0.70;;;3.50;99.90;;;4.06;74.89;98856.66;5095967;28;20195;-75
2021/12/02 07:00:22;;;;;;;1.95;0.50;;;3.40;99.90;;;4.02;74.91;98868.88;5090687;28;20214;-74
2021/12/02 07:02:53;;;;;;;2.35;0.70;;;3.40;99.90;;;3.98;74.91;98862.16;5089161;28;20222;-74
2021/12/02 07:05:21;;;;;;;3.10;0.98;;;3.40;99.90;;;3.98;74.81;98875.09;5081441;28;20656;-75
2021/12/02 07:07:48;;;;;;;1.55;0.47;;;3.30;99.90;;;3.97;74.61;98875.16;5094832;28;20200;-74
2021/12/02 07:10:19;;;;;;;1.77;0.60;;;3.30;99.90;;;3.93;74.66;98886.53;5090844;28;20286;-75
2021/12/02 07:12:49;;;;;;;1.95;0.75;;;3.30;99.90;;;3.90;74.88;98877.16;5083637;28;20196;-75
2021/12/02 07:15:19;;;;;;;2.60;0.75;;;3.30;99.90;;;3.89;74.58;98890.97;5074538;28;20203;-75
2021/12/02 07:17:54;;;;;;;2.85;0.73;;;3.30;99.90;;;3.86;74.64;98893.69;5090573;28;20737;-75
2021/12/02 07:20:21;;;;;;;3.78;0.82;;;3.20;99.90;;;3.88;74.75;98897.06;5091042;28;20206;-75
2021/12/02 07:22:48;;;;;;;5.60;1.08;;;3.30;99.90;;;3.95;74.76;98914.03;5076544;28;20227;-75
2021/12/02 07:25:15;;;;;;;3.88;0.90;;;3.30;99.90;;;4.00;74.55;98908.66;5076322;28;20246;-75
2021/12/02 07:27:42;;;;;;;2.15;0.60;;;3.30;99.90;;;3.98;74.32;98906.13;5081963;28;20678;-75
2021/12/02 07:30:11;;;;;;;4.15;0.70;;;3.30;99.90;;;3.99;74.01;98918.16;5086956;28;20216;-75
2021/12/02 07:32:41;;;;;;;3.42;0.70;;;3.30;99.90;;;4.01;73.88;98924.13;5082031;28;20192;-73
2021/12/02 07:35:14;;;;;;;1.98;0.60;;;3.40;99.90;;;4.00;73.50;98926.78;5080729;28;20191;-75
2021/12/02 07:37:43;;;;;;;3.60;0.57;;;3.30;99.90;;;3.97;73.27;98922.53;5081216;28;20813;-74
2021/12/02 07:40:12;;;;;;;2.38;0.68;;;3.30;99.90;;;3.95;73.12;98933.88;5092993;28;20710;-75
2021/12/02 07:42:39;;;;;;;2.20;0.73;;;3.30;99.90;;;3.93;73.10;98935.69;5086814;28;20206;-75
2021/12/02 07:45:09;;;;;;;6.93;1.15;;;3.30;99.90;;;3.95;72.88;98934.72;5080059;28;20314;-74
2021/12/02 07:47:40;;;;;;;4.97;1.10;;;3.30;99.90;;;3.98;72.83;98950.13;5099250;28;20291;-74
2021/12/02 07:50:13;;;;;;;6.22;1.10;;;3.30;99.90;;;3.99;72.82;98944.03;5073499;28;20226;-73
2021/12/02 07:52:45;;;;;;;3.73;0.63;;;3.40;99.90;;;4.01;72.86;98955.16;5085619;28;20185;-74
2021/12/02 07:55:15;;;;;;;2.60;0.80;;;3.40;99.90;;;4.03;72.59;98961.13;5086509;28;20202;-75
2021/12/02 07:57:44;;;;;;;3.07;0.83;;;3.40;99.90;;;4.01;72.33;98970.69;5081790;28;20203;-74
2021/12/02 08:00:14;;;;;;;1.35;0.55;;;3.50;99.90;;;4.06;72.58;98975.66;5095385;28;20319;-74
2021/12/02 08:02:44;;;;;;;2.30;0.70;;;3.50;99.90;;;4.10;72.32;98974.66;5082976;28;20210;-74
2021/12/02 08:05:13;;;;;;;4.15;0.75;;;3.50;99.90;;;4.14;72.48;98982.22;5084008;28;20660;-74
2021/12/02 08:07:41;;;;;;;4.35;0.80;;;3.60;99.90;;;4.16;72.51;98989.94;5086141;28;20195;-73
2021/12/02 08:10:11;;;;;;;1.08;0.50;;;3.60;99.90;;;4.16;72.56;98983.00;5083588;28;20217;-74
2021/12/02 08:12:40;;;;;;;5.90;0.65;;;3.60;99.90;;;4.15;72.44;98999.47;5079550;28;20200;-73
2021/12/02 08:15:09;;;;;;;0.88;0.50;;;3.60;99.90;;;4.14;72.34;99008.09;5086739;28;20357;-74
2021/12/02 08:17:36;;;;;;;2.75;0.80;;;3.60;99.90;;;4.16;72.62;99001.13;5093195;28;20552;-74
2021/12/02 08:20:05;;;;;;;3.38;0.60;;;3.60;99.90;;;4.16;72.18;99011.47;5082888;28;20211;-74
2021/12/02 08:22:33;;;;;;;2.17;0.55;;;3.60;99.90;;;4.14;72.35;99013.28;5098530;28;20208;-75
2021/12/02 08:25:00;;;;;;;1.90;0.57;;;3.60;99.90;;;4.16;72.42;99018.41;5092464;28;20214;-72
2021/12/02 08:27:27;;;;;;;1.52;0.43;;;3.60;99.90;;;4.16;72.33;99042.53;5088569;28;20187;-75
2021/12/02 08:29:53;;;;;;;5.72;1.08;;;3.60;99.90;;;4.12;71.88;99046.13;5082784;28;20215;-74
2021/12/02 08:32:20;;;;;;;1.48;0.50;;;3.60;99.90;;;4.09;72.41;99045.41;5084822;28;20187;-75
2021/12/02 08:34:47;;;;;;;5.18;0.95;;;3.60;99.90;;;4.11;72.21;99064.31;5082812;28;20195;-75
2021/12/02 08:37:14;;;;;;;3.10;0.60;;;3.60;99.90;;;4.11;72.07;99054.81;5079678;28;20567;-72
2021/12/02 08:39:43;;;;;;;4.38;0.65;;;3.60;99.90;;;4.14;71.90;99057.28;5093260;28;20188;-74
2021/12/02 08:42:10;;;;;;;4.43;0.80;;;3.60;99.90;;;4.17;71.94;99067.50;5086396;28;20238;-73
2021/12/02 08:44:40;;;;;;;5.63;0.90;;;3.60;99.90;;;4.19;71.94;99089.00;5085016;28;20218;-74
2021/12/02 08:47:09;;;;;;;2.50;0.70;;;3.70;99.90;;;4.19;71.72;99072.59;5092436;28;20203;-71
2021/12/02 08:49:36;;;;;;;0.88;0.40;;;3.70;99.90;;;4.16;71.54;99078.75;5079659;28;20679;-74
2021/12/02 08:52:04;;;;;;;6.43;0.98;;;3.60;99.90;;;4.13;71.32;99081.47;5083721;28;20192;-75
2021/12/02 08:54:31;;;;;;;4.38;0.80;;;3.60;99.90;;;4.13;71.29;99076.31;5080594;28;20200;-74
2021/12/02 08:56:59;;;;;;;1.88;0.50;;;3.70;99.90;;;4.18;71.23;99087.31;5084845;28;20199;-75
2021/12/02 08:59:26;;;;;;;4.32;0.75;;;3.70;99.90;;;4.17;70.77;99080.44;5083250;28;20180;-74
2021/12/02 09:01:52;;;;;;;6.10;1.00;;;3.60;99.90;;;4.10;70.81;99094.53;5090143;28;20215;-74
2021/12/02 09:04:19;;;;;;;2.63;0.63;;;3.60;99.90;;;4.07;70.90;99099.81;5081486;28;20198;-73
2021/12/02 09:06:46;;;;;;;3.20;0.80;;;3.50;99.90;;;4.07;70.71;99099.81;5085912;28;20206;-75
2021/12/02 09:09:13;;;;;;;5.05;0.80;;;3.50;99.90;;;4.05;70.56;99099.03;5079878;28;20187;-74
2021/12/02 09:11:40;;;;;;;3.55;0.85;;;3.50;99.90;;;4.06;70.63;99113.66;5078187;28;20211;-75
2021/12/02 09:14:08;;;;;;;4.97;0.80;;;3.50;99.90;;;4.06;70.61;99110.22;5080975;28;20195;-73
2021/12/02 09:16:36;;;;;;;2.20;0.70;;;3.50;99.90;;;4.06;70.54;99118.81;5093239;28;20183;-73
2021/12/02 09:19:04;;;;;;;4.10;0.75;;;3.50;99.90;;;4.04;70.44;99112.84;5076969;28;20192;-74
2021/12/02 09:21:30;;;;;;;3.75;0.63;;;3.50;99.90;;;4.05;70.36;99127.50;5085632;28;20216;-74
2021/12/02 09:23:57;;;;;;;1.58;0.52;;;3.50;99.90;;;4.01;70.13;99125.91;5086238;28;20229;-74
2021/12/02 09:26:24;;;;;;;6.00;1.00;;;3.40;99.90;;;3.99;69.77;99129.44;5081496;28;20681;-73
2021/12/02 09:28:54;;;;;;;2.67;0.70;;;3.40;99.90;;;3.98;69.80;99131.22;5075122;28;20196;-73
2021/12/02 09:31:23;;;;;;;3.58;1.00;;;3.40;99.90;;;4.03;69.44;99133.63;5089811;28;20683;-73
2021/12/02 09:33:50;;;;;;;1.92;0.60;;;3.40;99.90;;;4.04;69.09;99125.78;5089315;28;20793;-76
2021/12/02 09:36:18;;;;;;;3.60;0.75;;;3.40;99.90;;;4.01;68.95;99131.09;5093271;28;20678;-75
2021/12/02 09:38:46;;;;;;;7.50;1.25;;;3.40;99.90;;;4.00;68.57;99133.75;5085310;28;20187;-74
2021/12/02 09:41:13;;;;;;;2.60;0.85;;;3.40;99.90;;;4.03;68.51;99133.63;5074588;28;20215;-74
2021/12/02 09:43:40;;;;;;;2.20;0.63;;;3.40;99.90;;;4.04;68.45;99145.66;5091617;28;20335;-74
2021/12/02 09:46:07;;;;;;;4.90;0.60;;;3.40;99.90;;;4.04;67.95;99143.91;5082628;28;20199;-75
2021/12/02 09:48:36;;;;;;;3.10;1.00;;;3.40;99.90;;;4.04;67.59;99141.31;5082188;28;20567;-77
2021/12/02 09:51:09;;;;;;;3.45;0.68;;;3.40;99.90;;;4.06;67.54;99136.94;5081297;28;20211;-75
2021/12/02 09:53:48;;;;;;;6.75;0.80;;;3.40;99.90;;;4.11;67.21;99137.63;5089540;28;20202;-75
2021/12/02 09:56:18;;;;;;;1.95;0.60;;;3.50;99.90;;;4.18;67.21;99133.91;5099266;28;20191;-74
2021/12/02 09:58:46;;;;;;;7.00;1.05;;;3.50;99.90;;;4.25;67.02;99135.38;5080083;28;20183;-74
2021/12/02 10:01:15;;;;;;;3.80;0.77;;;3.60;99.90;;;4.27;66.72;99137.88;5073133;28;20204;-74
2021/12/02 10:03:45;;;;;;;5.75;0.88;;;3.60;99.90;;;4.31;66.82;99132.53;5089226;28;20291;-74
2021/12/02 10:06:17;;;;;;;7.65;1.27;;;3.60;99.90;;;4.41;67.43;99130.41;5090299;28;20221;-76
2021/12/02 10:08:52;;;;;;;1.75;0.85;;;3.70;99.90;;;4.41;66.95;99140.78;5080683;28;20196;-75
2021/12/02 10:11:30;;;;;;;4.97;1.20;;;3.70;99.90;;;4.36;66.85;99148.72;5097908;28;20214;-76
2021/12/02 10:14:19;;;;;;;4.75;1.00;;;3.70;99.90;;;4.33;66.47;99142.81;5093148;28;20222;-77
2021/12/02 10:16:48;;;;;;;6.50;1.40;;;3.70;99.90;;;4.33;66.66;99154.03;5088486;28;20203;-75
2021/12/02 10:19:20;;;;;;;3.38;0.65;;;3.70;99.90;;;4.35;66.95;99160.00;5080535;28;20644;-75
2021/12/02 10:21:54;;;;;;;6.47;1.00;;;3.70;99.90;;;4.30;66.95;99154.16;5084520;28;20204;-76
2021/12/02 10:24:25;;;;;;;6.45;1.10;;;3.70;99.90;;;4.37;67.38;99165.94;5081311;28;20739;-75
2021/12/02 10:26:56;;;;;;;5.32;1.02;;;3.70;99.90;;;4.40;67.09;99168.44;5074449;28;20207;-75
2021/12/02 10:29:28;;;;;;;5.43;1.20;;;3.70;99.90;;;4.53;67.62;99167.06;5087710;28;20200;-75
2021/12/02 10:32:12;;;;;;;4.63;0.65;;;3.80;99.90;;;4.52;67.20;99162.75;5083899;28;20230;-75
2021/12/02 10:34:52;;;;;;;6.50;1.10;;;3.80;99.90;;;4.44;66.75;99175.16;5073175;28;20291;-75
2021/12/02 10:37:22;;;;;;;5.10;0.93;;;3.70;99.90;;;4.41;66.94;99180.47;5078507;28;20192;-76
2021/12/02 10:39:58;;;;;;;4.70;1.00;;;3.70;99.90;;;4.42;67.09;99179.56;5081649;28;21052;-71
2021/12/02 10:42:26;;;;;;;6.13;1.00;;;3.70;99.90;;;4.39;nan;99184.84;5080579;28;20180;-72
2021/12/02 10:44:57;;;;;;;2.30;0.63;;;3.70;99.90;;;4.37;66.72;99183.25;5086645;28;20191;-74
2021/12/02 10:47:24;;;;;;;4.95;1.33;;;3.70;99.90;;;4.45;67.08;99184.63;5086423;28;20195;-73